ROMMA est une association bénévole à but non lucratif. Votre soutien est indispensable : ADHERER à ROMMA ou FAIRE un DON

Recoubeau - (26, Drôme)

Diois (510 m)   Longitude: 5° 24' E   Latitude: 44° 39' N Station partenaire n°64
 

Détail journalier du     <<     >>

Température Precipitation Humidité Pression Vent Dir Rafale Dir. rafale
Heure (°C) (mm) (%) (hPa) (km/h) (km/h)
01:00 -0.408010163SE6SSE
02:00 -1.408310162SE6SSE
03:00 -2.108510152SE6SSE
04:00 -2.808710151SSE6SSE
05:00 -2.908710153SSE8SSE
06:00 -2.708710153SSE8S
07:00 -2.708810154SSE10SE
08:00 -1.808710154SSE8SSE
09:00 4.306310142SSE26N
10:00 6.3051101415NNO31NNO
11:00 7.8046101512NNO26NNO
12:00 9.1039101412O27OSO
13:00 10.3036101413O32OSO
14:00 11.3038101411OSO26ONO
15:00 11.9038101312O37NNO
16:00 11.1039101321NNO40NNO
17:00 10.8040101321NNO45NNO
18:00 10.2042101418NO39NO
19:00 9.1046101517NO44NO
20:00 7.8050101616ONO39NO
21:00 7.0053101615ONO37ONO
22:00 6.2055101710NO29ONO
23:00 3.806410184ONO23O
minuit 1.207610181NO10NO

Graphique du 14-04-2019

 

Serveur OMMA